Time,TemperatureF,DewpointF,PressureIn,WindDirection,WindDirectionDegrees,WindSpeedMPH,WindSpeedGustMPH,Humidity,HourlyPrecipIn,Conditions,Clouds,dailyrainin,SoftwareType,DateUTC
2013-03-20 00:03:00,35.2,34.7,29.54,NW,307,5.0,5.0,98,0.01,,---,0.00,VWS V14.00,2013-03-20 00:03:00,
2013-03-20 00:08:00,35.2,34.7,29.55,WNW,288,5.0,7.0,98,0.01,,---,0.00,VWS V14.00,2013-03-20 00:08:00,
2013-03-20 00:13:00,35.2,34.7,29.54,WNW,284,6.0,9.0,98,0.01,,---,0.00,VWS V14.00,2013-03-20 00:13:00,
2013-03-20 00:18:00,35.3,34.8,29.54,WNW,296,4.0,6.0,98,0.01,,---,0.00,VWS V14.00,2013-03-20 00:18:00,
2013-03-20 00:23:00,35.4,34.9,29.55,WNW,300,6.0,6.0,98,0.01,,---,0.00,VWS V14.00,2013-03-20 00:23:00,
2013-03-20 00:28:00,35.4,34.9,29.54,WNW,290,5.0,7.0,98,0.01,,---,0.00,VWS V14.00,2013-03-20 00:28:00,
2013-03-20 00:33:00,35.4,34.9,29.55,WNW,286,5.0,8.0,98,0.01,,---,0.00,VWS V14.00,2013-03-20 00:33:00,
2013-03-20 00:38:00,35.3,34.8,29.55,WNW,293,3.0,5.0,98,0.01,,---,0.00,VWS V14.00,2013-03-20 00:38:00,
2013-03-20 00:43:00,35.3,34.8,29.55,WNW,298,5.0,5.0,98,0.01,,---,0.00,VWS V14.00,2013-03-20 00:43:00,
2013-03-20 00:48:00,35.3,34.8,29.55,WNW,294,4.0,6.0,98,0.01,,---,0.00,VWS V14.00,2013-03-20 00:48:00,
2013-03-20 00:53:00,35.3,34.8,29.55,WNW,297,4.0,6.0,98,0.00,,---,0.00,VWS V14.00,2013-03-20 00:53:00,
2013-03-20 00:58:00,35.3,34.8,29.55,WNW,294,6.0,6.0,98,0.00,,---,0.00,VWS V14.00,2013-03-20 00:58:00,
2013-03-20 01:03:00,35.2,34.7,29.55,WNW,290,5.0,6.0,98,0.00,,---,0.00,VWS V14.00,2013-03-20 01:03:00,
2013-03-20 01:08:00,35.2,34.7,29.55,WNW,290,5.0,5.0,98,0.00,,---,0.00,VWS V14.00,2013-03-20 01:08:00,
2013-03-20 01:13:00,35.2,34.7,29.55,WNW,290,0.0,2.0,98,0.00,,---,0.00,VWS V14.00,2013-03-20 01:13:00,
2013-03-20 01:18:00,35.2,34.7,29.56,WNW,290,3.0,4.0,98,0.00,,---,0.00,VWS V14.00,2013-03-20 01:18:00,
2013-03-20 01:23:00,35.3,35.0,29.56,WNW,290,0.0,0.0,99,0.00,,---,0.00,VWS V14.00,2013-03-20 01:23:00,
2013-03-20 01:28:00,35.4,35.2,29.56,WNW,290,0.0,0.0,99,0.00,,---,0.00,VWS V14.00,2013-03-20 01:28:00,
2013-03-20 01:33:00,35.4,35.2,29.56,WNW,290,2.0,3.0,99,0.00,,---,0.00,VWS V14.00,2013-03-20 01:33:00,
2013-03-20 01:38:00,35.5,35.2,29.56,WNW,290,4.0,4.0,99,0.00,,---,0.00,VWS V14.00,2013-03-20 01:38:00,
2013-03-20 01:43:00,35.5,35.2,29.56,WNW,290,1.0,4.0,99,0.00,,---,0.00,VWS V14.00,2013-03-20 01:43:00,
2013-03-20 01:48:00,35.6,35.3,29.56,WNW,291,2.0,3.0,99,0.00,,---,0.00,VWS V14.00,2013-03-20 01:48:00,
2013-03-20 01:53:00,35.5,35.0,29.56,WNW,294,5.0,6.0,98,0.00,,---,0.00,VWS V14.00,2013-03-20 01:53:00,
2013-03-20 01:58:00,35.4,34.9,29.56,WNW,295,3.0,3.0,98,0.00,,---,0.00,VWS V14.00,2013-03-20 01:58:00,
2013-03-20 02:03:00,35.3,34.8,29.56,WNW,295,3.0,4.0,98,0.00,,---,0.00,VWS V14.00,2013-03-20 02:03:00,
2013-03-20 02:08:00,35.3,34.8,29.56,WNW,294,4.0,5.0,98,0.00,,---,0.00,VWS V14.00,2013-03-20 02:08:00,
2013-03-20 02:13:00,35.3,34.8,29.56,WNW,294,4.0,4.0,98,0.00,,---,0.00,VWS V14.00,2013-03-20 02:13:00,
2013-03-20 02:18:00,35.3,34.8,29.56,WNW,294,5.0,5.0,98,0.00,,---,0.00,VWS V14.00,2013-03-20 02:18:00,
2013-03-20 02:23:00,35.3,34.8,29.57,WNW,294,5.0,5.0,98,0.00,,---,0.00,VWS V14.00,2013-03-20 02:23:00,
2013-03-20 02:28:00,35.2,34.7,29.57,West,280,8.0,9.0,98,0.00,,---,0.00,VWS V14.00,2013-03-20 02:28:00,
2013-03-20 02:33:00,34.9,34.4,29.57,West,277,7.0,7.0,98,0.00,,---,0.00,VWS V14.00,2013-03-20 02:33:00,
2013-03-20 02:38:00,34.8,34.3,29.57,WNW,283,5.0,6.0,98,0.00,,---,0.00,VWS V14.00,2013-03-20 02:38:00,
2013-03-20 02:43:00,35.2,34.7,29.57,NW,305,0.0,3.0,98,0.00,,---,0.00,VWS V14.00,2013-03-20 02:43:00,
2013-03-20 02:48:00,35.2,34.7,29.57,NW,308,7.0,7.0,98,0.00,,---,0.00,VWS V14.00,2013-03-20 02:48:00,
2013-03-20 02:53:00,35.4,34.9,29.57,NW,306,6.0,8.0,98,0.00,,---,0.00,VWS V14.00,2013-03-20 02:53:00,
2013-03-20 02:58:00,35.4,34.9,29.57,NW,311,9.0,9.0,98,0.00,,---,0.00,VWS V14.00,2013-03-20 02:58:00,
2013-03-20 03:03:00,35.4,34.9,29.57,NW,304,8.0,9.0,98,0.00,,---,0.00,VWS V14.00,2013-03-20 03:03:00,
2013-03-20 03:08:00,35.2,34.7,29.57,NW,305,6.0,9.0,98,0.00,,---,0.00,VWS V14.00,2013-03-20 03:08:00,
2013-03-20 03:13:00,35.2,34.7,29.57,NW,307,6.0,6.0,98,0.00,,---,0.00,VWS V14.00,2013-03-20 03:13:00,
2013-03-20 03:18:00,35.2,34.7,29.57,NW,313,4.0,6.0,98,0.00,,---,0.00,VWS V14.00,2013-03-20 03:18:00,
2013-03-20 03:23:00,35.2,34.7,29.57,WNW,303,4.0,7.0,98,0.00,,---,0.00,VWS V14.00,2013-03-20 03:23:00,
2013-03-20 03:28:00,35.2,34.7,29.57,NW,314,3.0,5.0,98,0.00,,---,0.00,VWS V14.00,2013-03-20 03:28:00,
2013-03-20 03:33:00,35.3,34.8,29.57,NW,307,6.0,8.0,98,0.00,,---,0.00,VWS V14.00,2013-03-20 03:33:00,
2013-03-20 03:38:00,35.4,34.9,29.57,NW,309,4.0,6.0,98,0.00,,---,0.00,VWS V14.00,2013-03-20 03:38:00,
2013-03-20 03:43:00,35.5,35.0,29.57,NW,319,4.0,5.0,98,0.00,,---,0.00,VWS V14.00,2013-03-20 03:43:00,
2013-03-20 03:48:00,35.6,35.1,29.57,NW,319,4.0,6.0,98,0.00,,---,0.00,VWS V14.00,2013-03-20 03:48:00,
2013-03-20 03:53:00,35.7,35.2,29.57,NNW,333,4.0,5.0,98,0.00,,---,0.00,VWS V14.00,2013-03-20 03:53:00,
2013-03-20 03:58:00,35.9,35.7,29.57,NW,325,4.0,4.0,99,0.00,,---,0.00,VWS V14.00,2013-03-20 03:58:00,
2013-03-20 04:00:00,36.0,35.8,29.57,NNW,327,5.0,7.0,99,0.00,,---,0.00,VWS V14.00,2013-03-20 04:00:00,
2013-03-20 04:01:00,36.0,35.8,29.57,NNW,328,2.0,4.0,99,0.00,,---,0.00,VWS V14.00,2013-03-20 04:01:00,
2013-03-20 04:04:00,36.1,35.8,29.58,NNW,330,3.0,5.0,99,0.00,,---,0.00,VWS V14.00,2013-03-20 04:04:00,
2013-03-20 04:06:00,36.1,35.8,29.58,NNW,331,4.0,5.0,99,0.00,,---,0.00,VWS V14.00,2013-03-20 04:06:00,
2013-03-20 04:12:00,36.2,36.0,29.58,NNW,340,5.0,5.0,99,0.00,,---,0.00,VWS V14.00,2013-03-20 04:12:00,
2013-03-20 04:17:00,36.3,36.0,29.58,NNW,327,3.0,5.0,99,0.00,,---,0.00,VWS V14.00,2013-03-20 04:17:00,
2013-03-20 04:22:00,36.4,36.2,29.59,NW,305,7.0,9.0,99,0.00,,---,0.00,VWS V14.00,2013-03-20 04:22:00,
2013-03-20 04:27:00,36.4,36.2,29.59,NW,310,4.0,6.0,99,0.00,,---,0.00,VWS V14.00,2013-03-20 04:27:00,
2013-03-20 04:32:00,36.4,36.2,29.59,NW,321,2.0,4.0,99,0.00,,---,0.00,VWS V14.00,2013-03-20 04:32:00,
2013-03-20 04:37:00,36.4,36.2,29.59,NW,321,0.0,0.0,99,0.00,,---,0.00,VWS V14.00,2013-03-20 04:37:00,
2013-03-20 04:42:00,36.4,36.2,29.59,NW,320,2.0,5.0,99,0.00,,---,0.00,VWS V14.00,2013-03-20 04:42:00,
2013-03-20 04:47:00,36.4,36.2,29.60,NW,320,1.0,1.0,99,0.00,,---,0.00,VWS V14.00,2013-03-20 04:47:00,
2013-03-20 04:52:00,36.4,36.2,29.60,NW,324,3.0,4.0,99,0.00,,---,0.00,VWS V14.00,2013-03-20 04:52:00,
2013-03-20 04:57:00,36.4,36.2,29.60,NNW,342,4.0,5.0,99,0.00,,---,0.00,VWS V14.00,2013-03-20 04:57:00,
2013-03-20 05:02:00,36.5,36.2,29.60,NNW,342,2.0,4.0,99,0.00,,---,0.00,VWS V14.00,2013-03-20 05:02:00,
2013-03-20 05:07:00,36.4,36.2,29.60,NNW,342,3.0,3.0,99,0.00,,---,0.00,VWS V14.00,2013-03-20 05:07:00,
2013-03-20 05:12:00,36.3,36.0,29.60,NNW,333,2.0,3.0,99,0.00,,---,0.00,VWS V14.00,2013-03-20 05:12:00,
2013-03-20 05:17:00,36.2,35.7,29.60,NNW,333,3.0,4.0,98,0.00,,---,0.00,VWS V14.00,2013-03-20 05:17:00,
2013-03-20 05:23:00,36.2,36.0,29.61,NNW,333,4.0,5.0,99,0.00,,---,0.00,VWS V14.00,2013-03-20 05:23:00,
2013-03-20 05:28:00,36.2,36.0,29.60,NNW,330,3.0,3.0,99,0.00,,---,0.00,VWS V14.00,2013-03-20 05:28:00,
2013-03-20 05:33:00,36.1,35.8,29.60,NNW,329,4.0,5.0,99,0.00,,---,0.00,VWS V14.00,2013-03-20 05:33:00,
2013-03-20 05:38:00,36.0,35.8,29.61,NNW,329,4.0,4.0,99,0.01,,---,0.01,VWS V14.00,2013-03-20 05:38:00,
2013-03-20 05:43:00,35.8,35.3,29.61,NW,311,3.0,3.0,98,0.01,,---,0.01,VWS V14.00,2013-03-20 05:43:00,
2013-03-20 05:48:00,35.6,35.1,29.61,WNW,294,6.0,6.0,98,0.01,,---,0.01,VWS V14.00,2013-03-20 05:48:00,
2013-03-20 05:53:00,35.2,34.7,29.61,WNW,293,5.0,7.0,98,0.01,,---,0.01,VWS V14.00,2013-03-20 05:53:00,
2013-03-20 05:58:00,35.0,34.5,29.62,WNW,291,5.0,5.0,98,0.01,,---,0.01,VWS V14.00,2013-03-20 05:58:00,
2013-03-20 06:03:00,35.1,34.6,29.62,WNW,296,7.0,7.0,98,0.01,,---,0.01,VWS V14.00,2013-03-20 06:03:00,
2013-03-20 06:08:00,35.1,34.8,29.62,WNW,295,6.0,6.0,99,0.01,,---,0.01,VWS V14.00,2013-03-20 06:08:00,
2013-03-20 06:13:00,35.1,34.8,29.63,WNW,293,4.0,6.0,99,0.01,,---,0.01,VWS V14.00,2013-03-20 06:13:00,
2013-03-20 06:18:00,35.1,34.8,29.63,WNW,293,4.0,6.0,99,0.01,,---,0.01,VWS V14.00,2013-03-20 06:18:00,
2013-03-20 06:23:00,35.0,34.8,29.63,WNW,295,3.0,5.0,99,0.01,,---,0.01,VWS V14.00,2013-03-20 06:23:00,
2013-03-20 06:28:00,35.0,34.8,29.63,WNW,296,3.0,4.0,99,0.01,,---,0.01,VWS V14.00,2013-03-20 06:28:00,
2013-03-20 06:33:00,35.2,35.0,29.63,WNW,302,0.0,0.0,99,0.01,,---,0.01,VWS V14.00,2013-03-20 06:33:00,
2013-03-20 06:38:00,35.3,35.0,29.64,NW,311,2.0,4.0,99,0.01,,---,0.01,VWS V14.00,2013-03-20 06:38:00,
2013-03-20 06:44:00,35.4,35.2,29.64,NW,309,3.0,3.0,99,0.01,,---,0.02,VWS V14.00,2013-03-20 06:44:00,
2013-03-20 06:49:00,35.5,35.2,29.64,NW,309,3.0,4.0,99,0.02,,---,0.02,VWS V14.00,2013-03-20 06:49:00,
2013-03-20 06:54:00,35.6,35.3,29.64,NW,309,4.0,4.0,99,0.02,,---,0.02,VWS V14.00,2013-03-20 06:54:00,
2013-03-20 06:59:00,35.6,35.3,29.64,WNW,288,6.0,6.0,99,0.02,,---,0.02,VWS V14.00,2013-03-20 06:59:00,
2013-03-20 07:05:00,35.5,35.2,29.65,West,277,6.0,7.0,99,0.02,,---,0.02,VWS V14.00,2013-03-20 07:05:00,
2013-03-20 07:10:00,35.2,35.0,29.65,West,277,5.0,6.0,99,0.02,,---,0.02,VWS V14.00,2013-03-20 07:10:00,
2013-03-20 07:15:00,35.1,34.8,29.65,West,272,6.0,6.0,99,0.02,,---,0.02,VWS V14.00,2013-03-20 07:15:00,
2013-03-20 07:20:00,35.0,34.8,29.66,West,259,5.0,7.0,99,0.02,,---,0.02,VWS V14.00,2013-03-20 07:20:00,
2013-03-20 07:25:00,35.0,34.8,29.65,West,261,4.0,7.0,99,0.02,,---,0.02,VWS V14.00,2013-03-20 07:25:00,
2013-03-20 07:30:00,35.0,34.8,29.65,West,261,5.0,7.0,99,0.02,,---,0.02,VWS V14.00,2013-03-20 07:30:00,
2013-03-20 07:36:00,34.8,34.5,29.66,West,264,5.0,6.0,99,0.02,,---,0.02,VWS V14.00,2013-03-20 07:36:00,
2013-03-20 07:41:00,34.7,34.5,29.66,West,266,4.0,5.0,99,0.01,,---,0.02,VWS V14.00,2013-03-20 07:41:00,
2013-03-20 07:46:00,34.8,34.5,29.66,West,273,4.0,5.0,99,0.01,,---,0.02,VWS V14.00,2013-03-20 07:46:00,
2013-03-20 07:51:00,35.0,34.8,29.66,West,278,6.0,6.0,99,0.00,,---,0.02,VWS V14.00,2013-03-20 07:51:00,
2013-03-20 07:57:00,35.0,34.8,29.67,WSW,257,6.0,7.0,99,0.00,,---,0.02,VWS V14.00,2013-03-20 07:57:00,
2013-03-20 08:02:00,34.8,34.5,29.66,West,263,3.0,5.0,99,0.00,,---,0.02,VWS V14.00,2013-03-20 08:02:00,
2013-03-20 08:07:00,34.8,34.5,29.67,West,263,5.0,6.0,99,0.00,,---,0.02,VWS V14.00,2013-03-20 08:07:00,
2013-03-20 08:12:00,34.8,34.5,29.67,West,265,2.0,4.0,99,0.00,,---,0.02,VWS V14.00,2013-03-20 08:12:00,
2013-03-20 08:18:00,34.8,34.5,29.67,West,265,4.0,5.0,99,0.00,,---,0.02,VWS V14.00,2013-03-20 08:18:00,
2013-03-20 08:23:00,34.7,34.5,29.67,West,265,4.0,4.0,99,0.00,,---,0.02,VWS V14.00,2013-03-20 08:23:00,
2013-03-20 08:28:00,34.7,34.5,29.68,West,265,2.0,3.0,99,0.00,,---,0.02,VWS V14.00,2013-03-20 08:28:00,
2013-03-20 08:33:00,35.0,34.8,29.68,West,265,1.0,1.0,99,0.00,,---,0.02,VWS V14.00,2013-03-20 08:33:00,
2013-03-20 08:38:00,35.1,34.8,29.69,West,265,0.0,2.0,99,0.00,,---,0.02,VWS V14.00,2013-03-20 08:38:00,
2013-03-20 08:43:00,35.2,35.0,29.69,West,265,0.0,0.0,99,0.00,,---,0.02,VWS V14.00,2013-03-20 08:43:00,
2013-03-20 08:48:00,35.3,35.0,29.69,West,265,0.0,0.0,99,0.00,,---,0.02,VWS V14.00,2013-03-20 08:48:00,
2013-03-20 08:53:00,35.5,35.2,29.70,West,265,0.0,0.0,99,0.00,,---,0.02,VWS V14.00,2013-03-20 08:53:00,
2013-03-20 08:58:00,35.6,35.3,29.70,West,265,0.0,0.0,99,0.01,,---,0.03,VWS V14.00,2013-03-20 08:58:00,
2013-03-20 09:03:00,35.7,35.5,29.70,West,265,0.0,0.0,99,0.01,,---,0.03,VWS V14.00,2013-03-20 09:03:00,
2013-03-20 09:08:00,36.0,36.0,29.71,West,277,0.0,0.0,100,0.01,,---,0.03,VWS V14.00,2013-03-20 09:08:00,
2013-03-20 09:13:00,36.1,36.1,29.71,West,277,0.0,0.0,100,0.01,,---,0.03,VWS V14.00,2013-03-20 09:13:00,
2013-03-20 09:18:00,36.2,36.2,29.71,West,277,0.0,0.0,100,0.01,,---,0.03,VWS V14.00,2013-03-20 09:18:00,
2013-03-20 09:23:00,36.1,35.8,29.71,West,277,0.0,0.0,99,0.01,,---,0.03,VWS V14.00,2013-03-20 09:23:00,
2013-03-20 09:28:00,36.1,35.8,29.72,West,277,0.0,0.0,99,0.01,,---,0.03,VWS V14.00,2013-03-20 09:28:00,
2013-03-20 09:33:00,36.1,35.8,29.72,West,277,0.0,0.0,99,0.02,,---,0.04,VWS V14.00,2013-03-20 09:33:00,
2013-03-20 09:38:00,36.1,35.8,29.72,West,277,0.0,0.0,99,0.02,,---,0.04,VWS V14.00,2013-03-20 09:38:00,
2013-03-20 09:43:00,36.1,35.8,29.72,WNW,286,0.0,2.0,99,0.02,,---,0.04,VWS V14.00,2013-03-20 09:43:00,
2013-03-20 09:48:00,36.3,36.0,29.73,WNW,290,3.0,3.0,99,0.02,,---,0.04,VWS V14.00,2013-03-20 09:48:00,
2013-03-20 09:53:00,36.4,36.4,29.73,WNW,290,0.0,0.0,100,0.02,,---,0.04,VWS V14.00,2013-03-20 09:53:00,
2013-03-20 09:58:00,36.6,36.6,29.73,WNW,290,1.0,1.0,100,0.01,,---,0.04,VWS V14.00,2013-03-20 09:58:00,
2013-03-20 10:03:00,36.7,36.7,29.74,WNW,290,3.0,3.0,100,0.01,,---,0.04,VWS V14.00,2013-03-20 10:03:00,
2013-03-20 10:09:00,36.6,36.6,29.73,West,259,2.0,2.0,100,0.01,,---,0.04,VWS V14.00,2013-03-20 10:09:00,
2013-03-20 10:14:00,36.8,36.8,29.74,SE,141,6.0,6.0,100,0.01,,---,0.04,VWS V14.00,2013-03-20 10:14:00,
2013-03-20 10:19:00,36.9,36.9,29.74,SSE,159,3.0,3.0,100,0.01,,---,0.04,VWS V14.00,2013-03-20 10:19:00,
2013-03-20 10:24:00,37.0,37.0,29.74,ESE,120,4.0,6.0,100,0.01,,---,0.04,VWS V14.00,2013-03-20 10:24:00,
2013-03-20 10:29:00,36.9,36.9,29.74,SE,144,5.0,6.0,100,0.01,,---,0.04,VWS V14.00,2013-03-20 10:29:00,
2013-03-20 10:34:00,36.9,36.9,29.74,SE,138,6.0,8.0,100,0.00,,---,0.04,VWS V14.00,2013-03-20 10:34:00,
2013-03-20 10:39:00,36.9,36.9,29.74,SE,142,6.0,6.0,100,0.00,,---,0.04,VWS V14.00,2013-03-20 10:39:00,
2013-03-20 10:44:00,37.1,37.1,29.74,SSE,153,3.0,9.0,100,0.00,,---,0.04,VWS V14.00,2013-03-20 10:44:00,
2013-03-20 10:50:00,37.0,37.0,29.74,SE,126,6.0,8.0,100,0.01,,---,0.05,VWS V14.00,2013-03-20 10:50:00,
2013-03-20 10:55:00,37.1,37.1,29.75,SE,132,3.0,6.0,100,0.01,,---,0.05,VWS V14.00,2013-03-20 10:55:00,
2013-03-20 11:00:00,37.3,37.3,29.75,SE,130,3.0,4.0,100,0.01,,---,0.05,VWS V14.00,2013-03-20 11:00:00,
2013-03-20 11:05:00,37.6,37.6,29.75,SE,129,3.0,6.0,100,0.01,,---,0.05,VWS V14.00,2013-03-20 11:05:00,
2013-03-20 11:10:00,37.7,37.7,29.75,SE,128,3.0,4.0,100,0.01,,---,0.05,VWS V14.00,2013-03-20 11:10:00,
2013-03-20 11:15:00,37.9,37.9,29.75,ESE,119,4.0,6.0,100,0.01,,---,0.05,VWS V14.00,2013-03-20 11:15:00,
2013-03-20 11:20:00,38.2,38.2,29.75,ESE,119,4.0,4.0,100,0.01,,---,0.05,VWS V14.00,2013-03-20 11:20:00,
2013-03-20 11:25:00,38.4,38.4,29.76,ESE,119,4.0,5.0,100,0.01,,---,0.05,VWS V14.00,2013-03-20 11:25:00,
2013-03-20 11:30:00,38.4,38.4,29.76,SSE,154,4.0,6.0,100,0.01,,---,0.05,VWS V14.00,2013-03-20 11:30:00,
2013-03-20 11:35:00,38.4,38.4,29.76,SSE,153,6.0,6.0,100,0.01,,---,0.05,VWS V14.00,2013-03-20 11:35:00,
2013-03-20 11:40:00,38.5,38.5,29.76,SE,144,6.0,6.0,100,0.01,,---,0.05,VWS V14.00,2013-03-20 11:40:00,
2013-03-20 11:45:00,38.3,38.3,29.77,SSE,151,6.0,6.0,100,0.01,,---,0.05,VWS V14.00,2013-03-20 11:45:00,
2013-03-20 11:50:00,38.3,38.0,29.77,South,169,2.0,5.0,99,0.00,,---,0.05,VWS V14.00,2013-03-20 11:50:00,
2013-03-20 11:55:00,38.3,38.0,29.77,SE,134,5.0,8.0,99,0.00,,---,0.05,VWS V14.00,2013-03-20 11:55:00,
2013-03-20 12:00:00,38.1,37.8,29.77,SE,136,4.0,6.0,99,0.00,,---,0.05,VWS V14.00,2013-03-20 12:00:00,
2013-03-20 12:05:00,37.8,37.5,29.78,SE,132,10.0,10.0,99,0.00,,---,0.05,VWS V14.00,2013-03-20 12:05:00,
2013-03-20 12:10:00,37.3,36.8,29.78,ESE,117,4.0,4.0,98,0.00,,---,0.05,VWS V14.00,2013-03-20 12:10:00,
2013-03-20 12:15:00,37.2,37.0,29.78,SE,126,2.0,3.0,99,0.00,,---,0.05,VWS V14.00,2013-03-20 12:15:00,
2013-03-20 12:20:00,37.2,37.0,29.78,SE,127,3.0,5.0,99,0.00,,---,0.05,VWS V14.00,2013-03-20 12:20:00,
2013-03-20 12:25:00,37.3,37.0,29.78,SE,129,3.0,5.0,99,0.01,,---,0.06,VWS V14.00,2013-03-20 12:25:00,
2013-03-20 12:30:00,37.4,37.2,29.78,ESE,122,4.0,4.0,99,0.01,,---,0.06,VWS V14.00,2013-03-20 12:30:00,
2013-03-20 12:35:00,37.7,37.5,29.79,ESE,116,5.0,5.0,99,0.01,,---,0.06,VWS V14.00,2013-03-20 12:35:00,
2013-03-20 12:40:00,37.9,37.6,29.79,SE,131,4.0,6.0,99,0.01,,---,0.06,VWS V14.00,2013-03-20 12:40:00,
2013-03-20 12:45:00,38.0,37.7,29.79,SE,140,6.0,6.0,99,0.01,,---,0.06,VWS V14.00,2013-03-20 12:45:00,
2013-03-20 12:50:00,38.2,37.9,29.79,SE,144,6.0,6.0,99,0.01,,---,0.06,VWS V14.00,2013-03-20 12:50:00,
2013-03-20 12:55:00,38.2,37.9,29.79,SSE,150,4.0,6.0,99,0.01,,---,0.06,VWS V14.00,2013-03-20 12:55:00,
2013-03-20 13:00:00,38.4,38.1,29.79,SE,132,8.0,8.0,99,0.01,,---,0.06,VWS V14.00,2013-03-20 13:00:00,
2013-03-20 13:05:00,38.7,38.4,29.80,SSE,153,5.0,5.0,99,0.01,,---,0.06,VWS V14.00,2013-03-20 13:05:00,
2013-03-20 13:10:00,38.7,38.4,29.79,SSE,161,4.0,7.0,99,0.01,,---,0.06,VWS V14.00,2013-03-20 13:10:00,
2013-03-20 13:15:00,38.7,38.4,29.80,South,172,6.0,6.0,99,0.01,,---,0.06,VWS V14.00,2013-03-20 13:15:00,
2013-03-20 13:20:00,38.8,38.5,29.80,SE,146,2.0,5.0,99,0.01,,---,0.06,VWS V14.00,2013-03-20 13:20:00,
2013-03-20 13:25:00,38.9,38.6,29.80,South,186,3.0,3.0,99,0.01,,---,0.06,VWS V14.00,2013-03-20 13:25:00,
2013-03-20 13:30:00,39.0,38.7,29.80,SSE,155,4.0,5.0,99,0.00,,---,0.06,VWS V14.00,2013-03-20 13:30:00,
2013-03-20 13:35:00,39.1,38.6,29.80,South,179,4.0,5.0,98,0.00,,---,0.06,VWS V14.00,2013-03-20 13:35:00,
2013-03-20 13:40:00,39.1,38.6,29.80,South,173,0.0,4.0,98,0.00,,---,0.06,VWS V14.00,2013-03-20 13:40:00,
2013-03-20 13:45:00,39.2,38.7,29.80,South,177,5.0,5.0,98,0.00,,---,0.06,VWS V14.00,2013-03-20 13:45:00,
2013-03-20 13:51:00,39.4,38.9,29.80,SE,142,7.0,8.0,98,0.00,,---,0.06,VWS V14.00,2013-03-20 13:51:00,
2013-03-20 13:57:00,39.6,39.1,29.80,SE,142,6.0,7.0,98,0.00,,---,0.06,VWS V14.00,2013-03-20 13:57:00,
2013-03-20 14:02:00,39.5,39.0,29.80,ESE,120,9.0,9.0,98,0.00,,---,0.06,VWS V14.00,2013-03-20 14:02:00,
2013-03-20 14:07:00,39.3,38.5,29.80,SE,144,7.0,9.0,97,0.00,,---,0.06,VWS V14.00,2013-03-20 14:07:00,
2013-03-20 14:12:00,39.6,39.1,29.80,SE,130,11.0,11.0,98,0.00,,---,0.06,VWS V14.00,2013-03-20 14:12:00,
2013-03-20 14:17:00,39.6,38.8,29.80,ESE,113,5.0,5.0,97,0.00,,---,0.06,VWS V14.00,2013-03-20 14:17:00,
2013-03-20 14:23:00,39.8,39.0,29.80,ESE,123,7.0,11.0,97,0.00,,---,0.06,VWS V14.00,2013-03-20 14:23:00,
2013-03-20 14:28:00,40.1,39.3,29.80,ESE,113,9.0,9.0,97,0.00,,---,0.06,VWS V14.00,2013-03-20 14:28:00,
2013-03-20 14:34:00,40.4,39.6,29.80,SE,141,10.0,12.0,97,0.00,,---,0.06,VWS V14.00,2013-03-20 14:34:00,
2013-03-20 14:39:00,40.2,39.2,29.80,SE,131,5.0,6.0,96,0.00,,---,0.06,VWS V14.00,2013-03-20 14:39:00,
2013-03-20 14:44:00,40.2,39.2,29.80,ESE,123,10.0,11.0,96,0.00,,---,0.06,VWS V14.00,2013-03-20 14:44:00,
2013-03-20 14:49:00,40.0,38.7,29.80,SE,132,11.0,11.0,95,0.00,,---,0.06,VWS V14.00,2013-03-20 14:49:00,
2013-03-20 14:54:00,40.2,39.2,29.80,SE,130,9.0,10.0,96,0.00,,---,0.06,VWS V14.00,2013-03-20 14:54:00,
2013-03-20 14:59:00,40.3,39.0,29.81,SE,136,8.0,11.0,95,0.00,,---,0.06,VWS V14.00,2013-03-20 14:59:00,
2013-03-20 15:05:00,40.0,38.7,29.81,ESE,116,5.0,8.0,95,0.00,,---,0.06,VWS V14.00,2013-03-20 15:05:00,
2013-03-20 15:10:00,40.4,39.1,29.81,SE,143,6.0,7.0,95,0.00,,---,0.06,VWS V14.00,2013-03-20 15:10:00,
2013-03-20 15:15:00,40.5,39.2,29.82,SSE,148,12.0,12.0,95,0.00,,---,0.06,VWS V14.00,2013-03-20 15:15:00,
2013-03-20 15:20:00,40.7,39.4,29.82,SSE,156,5.0,9.0,95,0.00,,---,0.06,VWS V14.00,2013-03-20 15:20:00,
2013-03-20 15:25:00,40.7,39.4,29.82,SE,131,4.0,5.0,95,0.00,,---,0.06,VWS V14.00,2013-03-20 15:25:00,
2013-03-20 15:30:00,40.9,39.6,29.83,SE,138,7.0,8.0,95,0.00,,---,0.06,VWS V14.00,2013-03-20 15:30:00,
2013-03-20 15:35:00,41.0,39.7,29.82,SSE,161,7.0,7.0,95,0.00,,---,0.06,VWS V14.00,2013-03-20 15:35:00,
2013-03-20 15:40:00,41.0,39.7,29.82,SE,131,10.0,11.0,95,0.00,,---,0.06,VWS V14.00,2013-03-20 15:40:00,
2013-03-20 15:45:00,40.9,39.3,29.83,SE,134,11.0,11.0,94,0.00,,---,0.06,VWS V14.00,2013-03-20 15:45:00,
2013-03-20 15:50:00,41.0,39.4,29.83,SE,127,3.0,6.0,94,0.00,,---,0.06,VWS V14.00,2013-03-20 15:50:00,
2013-03-20 15:55:00,41.3,39.7,29.83,ESE,112,6.0,7.0,94,0.00,,---,0.06,VWS V14.00,2013-03-20 15:55:00,
2013-03-20 16:00:00,41.5,39.9,29.83,ESE,120,7.0,7.0,94,0.00,,---,0.06,VWS V14.00,2013-03-20 16:00:00,
2013-03-20 16:06:00,41.7,40.1,29.83,SSE,147,8.0,11.0,94,0.00,,---,0.06,VWS V14.00,2013-03-20 16:06:00,
2013-03-20 16:12:00,41.4,39.8,29.83,ESE,123,8.0,11.0,94,0.00,,---,0.06,VWS V14.00,2013-03-20 16:12:00,
2013-03-20 16:17:00,41.3,39.7,29.83,ESE,116,6.0,9.0,94,0.00,,---,0.06,VWS V14.00,2013-03-20 16:17:00,
2013-03-20 16:23:00,41.1,39.5,29.83,SE,138,9.0,14.0,94,0.00,,---,0.06,VWS V14.00,2013-03-20 16:23:00,
2013-03-20 16:28:00,41.0,39.4,29.83,SE,131,6.0,6.0,94,0.00,,---,0.06,VWS V14.00,2013-03-20 16:28:00,
2013-03-20 16:33:00,41.1,39.5,29.83,East,100,9.0,9.0,94,0.00,,---,0.06,VWS V14.00,2013-03-20 16:33:00,
2013-03-20 16:38:00,41.0,40.7,29.83,SSE,151,5.0,10.0,99,0.00,,---,0.06,VWS V14.00,2013-03-20 16:38:00,
2013-03-20 16:44:00,40.9,39.3,29.83,SE,140,7.0,11.0,94,0.00,,---,0.06,VWS V14.00,2013-03-20 16:44:00,
2013-03-20 16:49:00,40.9,39.3,29.84,SE,144,6.0,12.0,94,0.00,,---,0.06,VWS V14.00,2013-03-20 16:49:00,
2013-03-20 16:55:00,41.1,39.5,29.84,ESE,117,6.0,9.0,94,0.00,,---,0.06,VWS V14.00,2013-03-20 16:55:00,
2013-03-20 17:00:00,41.1,39.5,29.84,SE,133,5.0,10.0,94,0.00,,---,0.06,VWS V14.00,2013-03-20 17:00:00,
2013-03-20 17:05:00,41.1,39.5,29.84,SE,125,10.0,11.0,94,0.00,,---,0.06,VWS V14.00,2013-03-20 17:05:00,
2013-03-20 17:10:00,41.1,39.2,29.84,SE,144,12.0,13.0,93,0.00,,---,0.06,VWS V14.00,2013-03-20 17:10:00,
2013-03-20 17:16:00,41.2,39.3,29.85,SE,137,7.0,8.0,93,0.00,,---,0.06,VWS V14.00,2013-03-20 17:16:00,
2013-03-20 17:22:00,41.2,39.3,29.85,SE,146,8.0,11.0,93,0.00,,---,0.06,VWS V14.00,2013-03-20 17:22:00,
2013-03-20 17:28:00,41.1,39.2,29.86,SSE,154,5.0,5.0,93,0.00,,---,0.06,VWS V14.00,2013-03-20 17:28:00,
2013-03-20 17:33:00,40.9,39.0,29.86,SSE,162,6.0,7.0,93,0.00,,---,0.06,VWS V14.00,2013-03-20 17:33:00,
2013-03-20 17:38:00,40.9,39.0,29.86,SSE,157,4.0,6.0,93,0.00,,---,0.06,VWS V14.00,2013-03-20 17:38:00,
2013-03-20 17:43:00,40.8,38.9,29.86,South,169,6.0,8.0,93,0.00,,---,0.06,VWS V14.00,2013-03-20 17:43:00,
2013-03-20 17:48:00,40.7,38.8,29.86,South,182,7.0,7.0,93,0.00,,---,0.06,VWS V14.00,2013-03-20 17:48:00,
2013-03-20 17:53:00,40.6,38.7,29.86,SSE,163,7.0,7.0,93,0.00,,---,0.06,VWS V14.00,2013-03-20 17:53:00,
2013-03-20 17:58:00,40.5,38.9,29.87,South,181,4.0,9.0,94,0.00,,---,0.06,VWS V14.00,2013-03-20 17:58:00,
2013-03-20 18:03:00,40.3,38.7,29.87,SSE,152,7.0,12.0,94,0.00,,---,0.06,VWS V14.00,2013-03-20 18:03:00,
2013-03-20 18:09:00,40.2,38.3,29.88,SSE,152,4.0,11.0,93,0.00,,---,0.06,VWS V14.00,2013-03-20 18:09:00,
2013-03-20 18:15:00,39.8,38.0,29.88,SSE,164,2.0,9.0,93,0.00,,---,0.06,VWS V14.00,2013-03-20 18:15:00,
2013-03-20 18:20:00,39.8,38.0,29.88,SE,146,12.0,12.0,93,0.00,,---,0.06,VWS V14.00,2013-03-20 18:20:00,
2013-03-20 18:25:00,39.7,37.8,29.88,SSE,155,4.0,9.0,93,0.00,,---,0.06,VWS V14.00,2013-03-20 18:25:00,
2013-03-20 18:30:00,39.7,37.8,29.88,SSE,164,9.0,9.0,93,0.00,,---,0.06,VWS V14.00,2013-03-20 18:30:00,
2013-03-20 18:35:00,39.6,37.8,29.89,South,175,9.0,10.0,93,0.00,,---,0.06,VWS V14.00,2013-03-20 18:35:00,
2013-03-20 18:40:00,39.5,37.7,29.89,SSE,166,7.0,10.0,93,0.00,,---,0.06,VWS V14.00,2013-03-20 18:40:00,
2013-03-20 18:45:00,39.4,37.5,29.89,South,172,4.0,6.0,93,0.00,,---,0.06,VWS V14.00,2013-03-20 18:45:00,
2013-03-20 18:50:00,39.3,37.5,29.90,SE,146,7.0,10.0,93,0.00,,---,0.06,VWS V14.00,2013-03-20 18:50:00,
2013-03-20 18:56:00,39.3,37.5,29.90,South,176,5.0,5.0,93,0.00,,---,0.06,VWS V14.00,2013-03-20 18:56:00,
2013-03-20 19:02:00,39.2,37.3,29.90,SSE,159,7.0,7.0,93,0.00,,---,0.06,VWS V14.00,2013-03-20 19:02:00,
2013-03-20 19:07:00,39.1,37.2,29.90,SSE,167,3.0,6.0,93,0.00,,---,0.06,VWS V14.00,2013-03-20 19:07:00,
2013-03-20 19:12:00,39.1,37.5,29.90,SSE,167,6.0,10.0,94,0.00,,---,0.06,VWS V14.00,2013-03-20 19:12:00,
2013-03-20 19:17:00,39.1,37.5,29.89,South,175,3.0,5.0,94,0.00,,---,0.06,VWS V14.00,2013-03-20 19:17:00,
2013-03-20 19:22:00,39.0,37.2,29.89,SSE,157,8.0,9.0,93,0.00,,---,0.06,VWS V14.00,2013-03-20 19:22:00,
2013-03-20 19:27:00,39.0,37.4,29.89,SSE,164,9.0,9.0,94,0.00,,---,0.06,VWS V14.00,2013-03-20 19:27:00,
2013-03-20 19:32:00,38.8,37.2,29.90,SSE,157,4.0,7.0,94,0.00,,---,0.06,VWS V14.00,2013-03-20 19:32:00,
2013-03-20 19:37:00,38.8,37.2,29.90,SSE,156,5.0,7.0,94,0.00,,---,0.06,VWS V14.00,2013-03-20 19:37:00,
2013-03-20 19:43:00,38.8,37.2,29.90,South,173,4.0,5.0,94,0.00,,---,0.06,VWS V14.00,2013-03-20 19:43:00,
2013-03-20 19:48:00,38.8,37.2,29.90,South,173,5.0,5.0,94,0.00,,---,0.06,VWS V14.00,2013-03-20 19:48:00,
2013-03-20 19:54:00,38.8,37.2,29.90,South,180,5.0,6.0,94,0.00,,---,0.06,VWS V14.00,2013-03-20 19:54:00,
2013-03-20 19:59:00,38.8,37.2,29.90,SSE,150,3.0,6.0,94,0.00,,---,0.06,VWS V14.00,2013-03-20 19:59:00,
2013-03-20 20:04:00,38.8,37.2,29.91,SE,145,7.0,11.0,94,0.00,,---,0.06,VWS V14.00,2013-03-20 20:04:00,
2013-03-20 20:09:00,38.9,37.3,29.91,SSE,151,5.0,6.0,94,0.00,,---,0.06,VWS V14.00,2013-03-20 20:09:00,
2013-03-20 20:14:00,39.0,37.4,29.91,SSE,155,2.0,4.0,94,0.00,,---,0.06,VWS V14.00,2013-03-20 20:14:00,
2013-03-20 20:19:00,39.1,37.5,29.91,SSE,153,10.0,11.0,94,0.00,,---,0.06,VWS V14.00,2013-03-20 20:19:00,
2013-03-20 20:24:00,39.2,37.6,29.91,SE,138,8.0,8.0,94,0.00,,---,0.06,VWS V14.00,2013-03-20 20:24:00,
2013-03-20 20:29:00,39.3,37.7,29.92,SE,144,5.0,9.0,94,0.00,,---,0.06,VWS V14.00,2013-03-20 20:29:00,
2013-03-20 20:34:00,39.4,37.8,29.92,SSE,159,7.0,9.0,94,0.00,,---,0.06,VWS V14.00,2013-03-20 20:34:00,
2013-03-20 20:40:00,39.4,37.8,29.92,SSE,147,9.0,10.0,94,0.00,,---,0.06,VWS V14.00,2013-03-20 20:40:00,
2013-03-20 20:45:00,39.5,37.9,29.92,SSE,159,7.0,12.0,94,0.00,,---,0.06,VWS V14.00,2013-03-20 20:45:00,
2013-03-20 20:50:00,39.6,38.0,29.92,SE,143,9.0,9.0,94,0.00,,---,0.06,VWS V14.00,2013-03-20 20:50:00,
2013-03-20 20:55:00,39.7,38.1,29.92,SSE,147,4.0,6.0,94,0.00,,---,0.06,VWS V14.00,2013-03-20 20:55:00,
2013-03-20 21:00:00,39.8,38.2,29.91,SE,146,7.0,11.0,94,0.00,,---,0.06,VWS V14.00,2013-03-20 21:00:00,
2013-03-20 21:05:00,39.9,38.3,29.92,SSE,151,3.0,5.0,94,0.00,,---,0.06,VWS V14.00,2013-03-20 21:05:00,
2013-03-20 21:10:00,40.1,38.5,29.92,SE,130,7.0,10.0,94,0.00,,---,0.06,VWS V14.00,2013-03-20 21:10:00,
2013-03-20 21:15:00,40.1,38.5,29.92,South,182,7.0,10.0,94,0.00,,---,0.06,VWS V14.00,2013-03-20 21:15:00,
2013-03-20 21:20:00,40.1,38.2,29.92,SE,131,12.0,14.0,93,0.00,,---,0.06,VWS V14.00,2013-03-20 21:20:00,
2013-03-20 21:25:00,40.2,38.3,29.91,SE,136,5.0,7.0,93,0.00,,---,0.06,VWS V14.00,2013-03-20 21:25:00,
2013-03-20 21:30:00,40.3,38.2,29.92,South,169,4.0,6.0,92,0.00,,---,0.06,VWS V14.00,2013-03-20 21:30:00,
2013-03-20 21:36:00,40.1,38.0,29.92,South,178,5.0,6.0,92,0.00,,---,0.06,VWS V14.00,2013-03-20 21:36:00,
2013-03-20 21:41:00,40.0,38.1,29.92,SE,144,4.0,10.0,93,0.00,,---,0.06,VWS V14.00,2013-03-20 21:41:00,
2013-03-20 21:47:00,39.8,38.0,29.92,South,175,5.0,6.0,93,0.00,,---,0.06,VWS V14.00,2013-03-20 21:47:00,
2013-03-20 21:52:00,39.7,37.8,29.92,SSE,153,6.0,7.0,93,0.00,,---,0.06,VWS V14.00,2013-03-20 21:52:00,
2013-03-20 21:57:00,39.8,38.2,29.92,SSE,148,10.0,10.0,94,0.00,,---,0.06,VWS V14.00,2013-03-20 21:57:00,
2013-03-20 22:03:00,40.1,38.5,29.92,ESE,123,10.0,13.0,94,0.00,,---,0.06,VWS V14.00,2013-03-20 22:03:00,
2013-03-20 22:08:00,40.5,38.9,29.92,SE,144,13.0,13.0,94,0.00,,---,0.06,VWS V14.00,2013-03-20 22:08:00,
2013-03-20 22:14:00,40.5,38.6,29.92,SE,138,16.0,19.0,93,0.00,,---,0.06,VWS V14.00,2013-03-20 22:14:00,
2013-03-20 22:19:00,40.5,38.6,29.92,SE,141,16.0,16.0,93,0.00,,---,0.06,VWS V14.00,2013-03-20 22:19:00,
2013-03-20 22:24:00,40.6,38.7,29.92,SE,132,16.0,16.0,93,0.00,,---,0.06,VWS V14.00,2013-03-20 22:24:00,
2013-03-20 22:29:00,40.6,38.7,29.92,SE,135,7.0,10.0,93,0.00,,---,0.06,VWS V14.00,2013-03-20 22:29:00,
2013-03-20 22:34:00,40.6,39.0,29.92,SE,142,10.0,16.0,94,0.00,,---,0.06,VWS V14.00,2013-03-20 22:34:00,
2013-03-20 22:39:00,40.6,39.0,29.92,SSE,150,16.0,17.0,94,0.00,,---,0.06,VWS V14.00,2013-03-20 22:39:00,
2013-03-20 22:45:00,40.5,38.9,29.92,SE,140,13.0,17.0,94,0.00,,---,0.06,VWS V14.00,2013-03-20 22:45:00,
2013-03-20 22:52:00,40.5,38.9,29.92,SSE,153,13.0,15.0,94,0.00,,---,0.06,VWS V14.00,2013-03-20 22:52:00,
2013-03-20 22:57:00,40.4,38.8,29.92,SE,146,11.0,19.0,94,0.00,,---,0.06,VWS V14.00,2013-03-20 22:57:00,
2013-03-20 23:02:00,40.3,38.7,29.92,SE,136,15.0,16.0,94,0.00,,---,0.06,VWS V14.00,2013-03-20 23:02:00,
2013-03-20 23:08:00,40.2,38.6,29.92,SE,128,14.0,17.0,94,0.00,,---,0.06,VWS V14.00,2013-03-20 23:08:00,
2013-03-20 23:13:00,40.0,38.4,29.92,SE,127,14.0,14.0,94,0.00,,---,0.06,VWS V14.00,2013-03-20 23:13:00,
2013-03-20 23:18:00,40.0,38.4,29.92,SSE,148,17.0,20.0,94,0.00,,---,0.06,VWS V14.00,2013-03-20 23:18:00,
2013-03-20 23:23:00,39.9,38.3,29.92,SE,140,15.0,15.0,94,0.00,,---,0.06,VWS V14.00,2013-03-20 23:23:00,
2013-03-20 23:28:00,39.9,38.3,29.93,SE,136,12.0,14.0,94,0.00,,---,0.06,VWS V14.00,2013-03-20 23:28:00,
2013-03-20 23:33:00,39.9,38.3,29.92,SE,146,15.0,15.0,94,0.00,,---,0.06,VWS V14.00,2013-03-20 23:33:00,
2013-03-20 23:39:00,40.0,38.4,29.92,SSE,168,10.0,16.0,94,0.00,,---,0.06,VWS V14.00,2013-03-20 23:39:00,
2013-03-20 23:44:00,40.0,38.4,29.92,SSE,161,16.0,22.0,94,0.00,,---,0.06,VWS V14.00,2013-03-20 23:44:00,
2013-03-20 23:49:00,40.0,38.4,29.92,SSE,147,14.0,16.0,94,0.00,,---,0.06,VWS V14.00,2013-03-20 23:49:00,
2013-03-20 23:54:00,40.1,38.5,29.92,SSE,157,21.0,21.0,94,0.00,,---,0.06,VWS V14.00,2013-03-20 23:54:00,
2013-03-20 23:59:00,40.1,38.5,29.92,SE,138,12.0,21.0,94,0.00,,---,0.00,VWS V14.00,2013-03-20 23:59:00,